Schippersgracht — PCGR — position and weather

sailwx.info

Track history (hours):
 
Tides and Currents Weather Stations Pressure Air Temp Water Temp Dewpoint Dewpoint Depression Visibility Wind Speed Wind Dir Waves Ship Positions

Schippersgracht

Last reported at 2019-Sep-22 10:29 UTC. Time now 2019-Sep-22 10:56 UTC.
Position N 50°18' W 000°06'.

Length 168 m; beam 25 m.

Type: Cargo ship. MMSI: 245578000.

Date/timePositionNaut miles runAvg speedWind from/ knotsBaromVisibWave heightAir tempDewpointWater temp
2019-Sep-22 10:29N 50°18' W 000°06'1018.0
2019-Sep-22 09:57N 50°16' W 000°21'817.8
2019-Sep-22 09:29N 50°15' W 000°33'817.5
2019-Sep-22 09:01N 50°13' W 000°46'917.1
2019-Sep-22 08:31N 50°10' W 000°59'816.8
2019-Sep-22 08:00N 50°08' W 001°11'816.4
2019-Sep-22 07:31N 50°06' W 001°23'816.0
2019-Sep-22 07:00N 50°03' W 001°35'815.7
2019-Sep-22 06:30N 50°01' W 001°47'815.7
2019-Sep-22 06:00N 49°59' W 001°59'815.8
2019-Sep-22 05:30N 49°57' W 002°11'816.3
2019-Sep-22 05:01N 49°55' W 002°23'816.7
2019-Sep-22 04:31N 49°53' W 002°35'917.1
2019-Sep-22 04:01N 49°51' W 002°48'917.5
2019-Sep-22 03:31N 49°48' W 003°01'917.9
2019-Sep-22 03:00N 49°46' W 003°15'  
2019-Sep-12 20:57N 39°52' W 075°12'0 0.3
2019-Sep-12 20:30N 39°52' W 075°12'0 0.0
2019-Sep-12 19:42N 39°52' W 075°12'0 0.1
2019-Sep-12 19:30N 39°52' W 075°12'0 0.1
2019-Sep-12 19:00N 39°52' W 075°12'0 0.1
2019-Sep-12 18:24N 39°52' W 075°12'0 0.0
2019-Sep-12 13:00N 39°52' W 075°12'0 0.3
2019-Sep-12 12:30N 39°52' W 075°12'0 0.1
2019-Sep-12 12:00N 39°52' W 075°12'0 0.0
2019-Sep-12 11:30N 39°52' W 075°12'0 0.1
2019-Sep-12 11:00N 39°52' W 075°13'0 0.1
2019-Sep-12 10:30N 39°52' W 075°12'  
Track history (hours):
 
Tides and Currents Weather Stations Pressure Air Temp Water Temp Dewpoint Dewpoint Depression Visibility Wind Speed Wind Dir Waves Ship Positions

Schippersgracht

Last reported at 2019-Sep-22 10:29 UTC. Time now 2019-Sep-22 10:56 UTC.
Position N 50°18' W 000°06'.

Length 168 m; beam 25 m.

Type: Cargo ship. MMSI: 245578000.

Date/timePositionNaut miles runAvg speedWind from/ knotsBaromVisibWave heightAir tempDewpointWater temp
2019-Sep-22 10:29N 50°18' W 000°06'1018.0
2019-Sep-22 09:57N 50°16' W 000°21'817.8
2019-Sep-22 09:29N 50°15' W 000°33'817.5
2019-Sep-22 09:01N 50°13' W 000°46'917.1
2019-Sep-22 08:31N 50°10' W 000°59'816.8
2019-Sep-22 08:00N 50°08' W 001°11'816.4
2019-Sep-22 07:31N 50°06' W 001°23'816.0
2019-Sep-22 07:00N 50°03' W 001°35'815.7
2019-Sep-22 06:30N 50°01' W 001°47'815.7
2019-Sep-22 06:00N 49°59' W 001°59'815.8
2019-Sep-22 05:30N 49°57' W 002°11'816.3
2019-Sep-22 05:01N 49°55' W 002°23'816.7
2019-Sep-22 04:31N 49°53' W 002°35'917.1
2019-Sep-22 04:01N 49°51' W 002°48'917.5
2019-Sep-22 03:31N 49°48' W 003°01'917.9
2019-Sep-22 03:00N 49°46' W 003°15'  
2019-Sep-12 20:57N 39°52' W 075°12'0 0.3
2019-Sep-12 20:30N 39°52' W 075°12'0 0.0
2019-Sep-12 19:42N 39°52' W 075°12'0 0.1
2019-Sep-12 19:30N 39°52' W 075°12'0 0.1
2019-Sep-12 19:00N 39°52' W 075°12'0 0.1
2019-Sep-12 18:24N 39°52' W 075°12'0 0.0
2019-Sep-12 13:00N 39°52' W 075°12'0 0.3
2019-Sep-12 12:30N 39°52' W 075°12'0 0.1
2019-Sep-12 12:00N 39°52' W 075°12'0 0.0
2019-Sep-12 11:30N 39°52' W 075°12'0 0.1
2019-Sep-12 11:00N 39°52' W 075°13'0 0.1
2019-Sep-12 10:30N 39°52' W 075°12'  

Dump ship's entire track history